Time;durP1;ratioP1;P1;durP2;ratioP2;P2;SDS_P1;SDS_P2;PMS_P1;PMS_P2;Temp;Humidity;BMP_temperature;BMP_pressure;BME280_temperature;BME280_humidity;BME280_pressure;Samples;Min_cycle;Max_cycle;Signal;HPM_P1;HPM_P2
2022/01/17 07:31:20;;;;;;;8.73;1.58;;;;;;;;;;4790909;29;20066;-80
2022/01/17 07:33:46;;;;;;;6.07;0.98;;;;;;;;;;4790071;29;20063;-80
2022/01/17 09:44:56;;;;;;;3.63;1.50;;;;;;;;;;4830218;29;20046;-81
2022/01/17 10:01:03;;;;;;;4.93;1.40;;;;;;;;;;4654621;30;19938;-80
2022/01/17 10:04:20;;;;;;;5.45;1.80;;;;;;;;;;4598735;30;20841;-81
2022/01/17 10:14:36;;;;;;;1.73;0.80;;;;;;;;;;4684409;30;20092;-80
2022/01/17 10:17:18;;;;;;;;;;;;;;;;;;4685051;30;20082;-79
2022/01/17 10:19:45;;;;;;;5.43;1.15;;;;;;;;;;4765089;30;20011;-80
2022/01/17 10:22:18;;;;;;;20.58;10.73;;;;;;;;;;4839919;29;20060;-80
2022/01/17 10:24:55;;;;;;;10.98;5.53;;;;;;;;;;4830794;29;20056;-80
2022/01/17 10:27:42;;;;;;;6.68;2.15;;;;;;;;;;4831586;29;21318;-80
2022/01/17 10:30:31;;;;;;;;;;;;;;;;;;4850331;29;20491;-80
2022/01/17 10:35:40;;;;;;;4.30;2.28;;;;;;;;;;4839790;29;20033;-80
2022/01/17 10:38:10;;;;;;;4.68;1.90;;;;;;;;;;4863494;29;20527;-81
2022/01/17 10:48:03;;;;;;;5.55;1.35;;;;;;;;;;4736036;29;20050;-79
2022/01/17 10:54:30;;;;;;;6.53;1.75;;;;;;;;;;4727361;30;20136;-80
2022/01/17 10:59:56;;;;;;;9.73;1.77;;;;;;;;;;4792452;29;20088;-81
2022/01/17 11:02:29;;;;;;;7.97;1.48;;;;;;;;;;4779478;29;20046;-81
2022/01/17 11:34:28;;;;;;;6.07;1.85;;;;;;;;;;5324438;23;20414;-81
2022/01/17 12:08:06;;;;;;;6.80;1.25;;;;;;;;;;4902757;23;20059;-84
2022/01/17 17:56:25;;;;;;;13.65;3.58;;;;;;;;;;6224054;22;1127353;-84
2022/01/17 17:58:51;;;;;;;18.92;4.18;;;;;;;;;;6251844;22;20058;-84
2022/01/17 18:01:17;;;;;;;16.08;4.32;;;;;;;;;;6254239;22;20517;-84
2022/01/17 18:03:43;;;;;;;18.90;4.40;;;;;;;;;;6255813;22;20016;-84
2022/01/17 18:06:08;;;;;;;12.63;3.58;;;;;;;;;;6254384;22;20420;-83
2022/01/17 18:08:34;;;;;;;25.65;4.35;;;;;;;;;;6251316;22;20019;-81
2022/01/17 18:11:03;;;;;;;16.08;4.57;;;;;;;;;;6255102;22;20020;-83
2022/01/17 18:13:28;;;;;;;15.20;3.97;;;;;;;;;;6253161;22;20019;-84
2022/01/17 18:16:00;;;;;;;13.48;3.53;;;;;;;;;;6255236;22;20038;-83
2022/01/17 18:18:27;;;;;;;19.75;4.43;;;;;;;;;;6230814;22;20020;-83
2022/01/17 18:20:53;;;;;;;22.58;4.82;;;;;;;;;;6241187;22;20043;-84
2022/01/17 18:23:18;;;;;;;15.32;3.60;;;;;;;;;;6256440;22;20046;-84
2022/01/17 18:25:44;;;;;;;21.27;5.15;;;;;;;;;;6281715;22;20023;-83
2022/01/17 18:28:14;;;;;;;19.42;4.80;;;;;;;;;;6254596;22;20042;-83
2022/01/17 18:30:39;;;;;;;18.90;5.13;;;;;;;;;;6253425;22;20023;-83
2022/01/17 18:33:08;;;;;;;25.65;5.28;;;;;;;;;;6256450;22;20035;-83
2022/01/17 18:35:34;;;;;;;20.77;4.03;;;;;;;;;;6255804;22;20410;-84
2022/01/17 18:38:00;;;;;;;19.17;5.20;;;;;;;;;;6255332;22;20023;-84
2022/01/17 18:40:26;;;;;;;23.50;5.15;;;;;;;;;;6255735;22;20024;-83
2022/01/17 18:42:52;;;;;;;22.90;4.15;;;;;;;;;;6258094;22;20102;-84
2022/01/17 18:45:17;;;;;;;20.95;4.95;;;;;;;;;;6262076;22;20392;-84
2022/01/17 18:47:46;;;;;;;19.63;4.47;;;;;;;;;;6260081;22;20012;-84
2022/01/17 18:50:13;;;;;;;18.38;4.90;;;;;;;;;;6216754;22;20053;-85
2022/01/17 18:52:40;;;;;;;15.93;4.35;;;;;;;;;;6234746;22;20016;-85
2022/01/17 18:55:08;;;;;;;17.35;4.82;;;;;;;;;;6244646;22;20063;-85
2022/01/17 18:57:41;;;;;;;17.75;3.92;;;;;;;;;;6223203;22;20404;-85
2022/01/17 19:00:40;;;;;;;20.10;4.75;;;;;;;;;;6183944;22;20013;-84
2022/01/17 19:03:14;;;;;;;20.88;3.70;;;;;;;;;;6272142;22;20052;-83
2022/01/17 19:06:02;;;;;;;22.98;4.22;;;;;;;;;;6235703;22;20004;-87
2022/01/17 20:20:47;;;;;;;20.40;3.75;;;;;;;;;;6214682;22;20027;-79
2022/01/17 20:23:42;;;;;;;;;;;;;;;;;;;;;
2022/01/17 20:26:20;;;;;;;15.82;3.80;;;;;;;;;;6173863;23;20105;-78
2022/01/17 20:28:45;;;;;;;19.90;5.57;;;;;;;;;;6198816;22;20087;-78
2022/01/17 20:31:11;;;;;;;19.05;4.05;;;;;;;;;;6280687;22;20019;-78
2022/01/17 20:33:37;;;;;;;13.05;4.07;;;;;;;;;;6227999;22;20495;-78
2022/01/17 20:36:11;;;;;;;26.50;4.47;;;;;;;;;;6253960;22;20030;-78
2022/01/17 20:38:37;;;;;;;20.90;4.72;;;;;;;;;;6252935;22;20034;-78
2022/01/17 20:41:03;;;;;;;21.65;4.95;;;;;;;;;;6255262;22;20015;-78
2022/01/17 20:43:29;;;;;;;17.98;3.60;;;;;;;;;;6229089;22;20042;-78
2022/01/17 20:45:59;;;;;;;20.00;4.70;;;;;;;;;;6228459;22;20027;-78
2022/01/17 20:48:39;;;;;;;;;;;;;;;;;;;;;
2022/01/17 20:54:50;;;;;;;71.95;31.52;;;;;;;;;;6181616;23;20035;-78
2022/01/17 20:57:16;;;;;;;92.57;40.17;;;;;;;;;;6196190;22;20015;-78
2022/01/17 20:59:43;;;;;;;72.95;36.42;;;;;;;;;;6223980;22;20038;-78
2022/01/17 21:02:10;;;;;;;67.35;33.88;;;;;;;;;;6244666;22;20039;-78
2022/01/17 21:04:37;;;;;;;56.03;25.52;;;;;;;;;;6217340;22;20024;-79
2022/01/17 21:07:04;;;;;;;32.22;14.38;;;;;;;;;;6271376;22;20022;-79
2022/01/17 21:09:30;;;;;;;32.10;9.10;;;;;;;;;;6245457;22;20099;-79
2022/01/17 21:15:19;;;;;;;20.40;4.63;;;;;;;;;;6167198;23;20039;-78
2022/01/17 21:17:46;;;;;;;26.13;5.40;;;;;;;;;;6214886;22;20405;-78
2022/01/17 21:20:15;;;;;;;34.75;8.18;;;;;;;;;;6243068;22;20039;-78
2022/01/17 21:22:42;;;;;;;28.67;8.02;;;;;;;;;;6241844;22;20016;-78
2022/01/17 21:25:08;;;;;;;30.85;7.82;;;;;;;;;;6264367;22;20046;-77
2022/01/17 21:27:34;;;;;;;34.47;7.85;;;;;;;;;;6267006;22;20455;-78
2022/01/17 21:30:00;;;;;;;26.63;7.28;;;;;;;;;;6267705;22;20012;-78
2022/01/17 21:32:27;;;;;;;31.33;7.55;;;;;;;;;;6268563;22;20019;-77
2022/01/17 21:34:53;;;;;;;28.35;7.28;;;;;;;;;;6242361;22;21336;-77
2022/01/17 21:37:20;;;;;;;21.38;5.18;;;;;;;;;;6242366;22;20022;-77
2022/01/17 21:39:46;;;;;;;19.45;4.72;;;;;;;;;;6228836;22;20019;-78
2022/01/17 21:42:14;;;;;;;25.23;4.88;;;;;;;;;;6239740;22;20046;-77
2022/01/17 21:45:25;;;;;;;22.30;4.25;;;;;;;;;;6252317;22;20031;-77
